»·PEaware :: DAL1548 KLAS-KLAX

DAL1548 :: KLAS-KLAX

FLIGHT INFORMATION

Flight Status: Arrived
Operator:
Delta Air Lines
More flights by this operator :: More flights under this callsign
Pilot: Austin B. (27954)
Aircraft: BOEING 757-200
(B752)
More flights by this aircraft type
Origin: KLAS McCarran Intl
United States
Destination: KLAX Los Angeles Intl
United States
More flights between these airports :: More routes between these airports
Route: +BOACH8 RIKII SHTNR ANJLL4
File this flight plan on PilotEdge
Remarks:
Altitude:
(Current/Filed)
32,000ft
Speed:
(Current/Filed)
400kts
Departed: 18-Mar-20 09:26 PM
Arrived: 18-Mar-20 10:10 PM
Distance/Time
Traveled:
205nm/0:44
Distance/Time
To Go:
Arrived

Flight Plot

Page will automatically refresh every two minutes.

Flight plan parsing failed; only flown route is shown


Map Options




Map Legend


Flown Route
Filed Route
Departure Airport
Arrival Airport
Navaid (VOR, NDB)
Fix

Horizontal Profiles

Position Reports

Time Latitude Longitude Heading Altitude Ground
Speed
18-Mar-20 21:00 36.080679 -115.140721 125 2190ft 0kts
18-Mar-20 21:01 36.080679 -115.140721 125 2190ft 0kts
18-Mar-20 21:02 36.080679 -115.140721 125 2190ft 0kts
18-Mar-20 21:03 36.080679 -115.140721 125 2190ft 0kts
18-Mar-20 21:04 36.080679 -115.140721 125 2190ft 0kts
18-Mar-20 21:05 36.080679 -115.140721 125 2190ft 0kts
18-Mar-20 21:06 36.080679 -115.140721 125 2190ft 0kts
18-Mar-20 21:07 36.080679 -115.140721 125 2190ft 0kts
18-Mar-20 21:08 36.080679 -115.140721 125 2190ft 0kts
18-Mar-20 21:09 36.080707 -115.140769 125 2190ft 1kts
18-Mar-20 21:10 36.081041 -115.141357 125 2190ft 0kts
18-Mar-20 21:11 36.081040 -115.141355 125 2190ft 0kts
18-Mar-20 21:12 36.081039 -115.141353 125 2190ft 0kts
18-Mar-20 21:13 36.081038 -115.141351 125 2190ft 0kts
18-Mar-20 21:14 36.079563 -115.141606 180 2190ft 12kts
18-Mar-20 21:15 36.078274 -115.143326 270 2190ft 12kts
18-Mar-20 21:16 36.078421 -115.145758 274 2190ft 0kts
18-Mar-20 21:17 36.078464 -115.146339 275 2190ft 9kts
18-Mar-20 21:18 36.078007 -115.152201 272 2190ft 22kts
18-Mar-20 21:19 36.078039 -115.158553 269 2190ft 14kts
18-Mar-20 21:20 36.077687 -115.161259 193 2190ft 0kts
18-Mar-20 21:21 36.077685 -115.161260 193 2190ft 0kts
18-Mar-20 21:22 36.077682 -115.161260 193 2190ft 0kts
18-Mar-20 21:23 36.077680 -115.161261 193 2190ft 0kts
18-Mar-20 21:24 36.076410 -115.161169 122 2190ft 2kts
18-Mar-20 21:25 36.076407 -115.140224 89 2234ft 165kts
18-Mar-20 21:26 36.076523 -115.075476 89 4635ft 209kts
18-Mar-20 21:27 36.076362 -115.001608 89 6476ft 223kts
18-Mar-20 21:28 36.043647 -114.939648 152 8160ft 264kts
18-Mar-20 21:29 35.970114 -114.909117 185 10199ft 320kts
18-Mar-20 21:30 35.895301 -114.974508 229 13077ft 347kts
18-Mar-20 21:31 35.829664 -115.064419 227 15980ft 359kts
18-Mar-20 21:32 35.764158 -115.160491 231 18722ft 376kts
18-Mar-20 21:33 35.697773 -115.262609 225 19831ft 374kts
18-Mar-20 21:34 35.600644 -115.304868 181 22160ft 391kts
18-Mar-20 21:35 35.491287 -115.311094 196 24476ft 402kts
18-Mar-20 21:36 35.397178 -115.375867 213 26606ft 416kts
18-Mar-20 21:37 35.324757 -115.433519 210 28233ft 427kts
18-Mar-20 21:43 34.778108 -116.018417 228 31841ft 463kts
18-Mar-20 21:44 34.641311 -116.192741 228 31859ft 464kts
18-Mar-20 21:46 34.551562 -116.306727 228 31864ft 464kts
18-Mar-20 21:47 34.461699 -116.420329 228 31862ft 463kts
18-Mar-20 21:48 34.383176 -116.543586 244 31366ft 464kts
18-Mar-20 21:49 34.333000 -116.679271 247 29345ft 412kts
18-Mar-20 21:50 34.284591 -116.800479 245 27244ft 391kts
18-Mar-20 21:51 34.238409 -116.913573 245 25195ft 378kts
18-Mar-20 21:52 34.196533 -117.031506 252 23069ft 366kts
18-Mar-20 21:53 34.166268 -117.146399 253 21056ft 352kts
18-Mar-20 21:54 34.136030 -117.258359 253 18217ft 346kts
18-Mar-20 21:55 34.106153 -117.366631 254 15469ft 332kts
18-Mar-20 21:56 34.078815 -117.469430 249 13925ft 299kts
18-Mar-20 21:57 34.048505 -117.559050 257 13605ft 297kts
18-Mar-20 21:58 34.030904 -117.651676 259 11635ft 267kts
18-Mar-20 21:59 34.018165 -117.736907 264 9722ft 265kts
18-Mar-20 22:00 34.009225 -117.824597 264 7957ft 243kts
18-Mar-20 22:01 34.004152 -117.905926 266 6563ft 240kts
18-Mar-20 22:01 33.995243 -117.969725 264 5774ft 227kts
18-Mar-20 22:03 33.987325 -118.054969 264 4497ft 211kts
18-Mar-20 22:04 33.980753 -118.120461 264 4472ft 177kts
18-Mar-20 22:04 33.976198 -118.165701 264 4257ft 171kts
18-Mar-20 22:06 33.969056 -118.237140 264 3123ft 182kts
18-Mar-20 22:07 33.963632 -118.290026 264 2105ft 136kts
18-Mar-20 22:07 33.959478 -118.330449 265 1330ft 145kts
18-Mar-20 22:08 33.954958 -118.375465 262 579ft 128kts
18-Mar-20 22:10 33.950615 -118.416955 262 135ft 28kts
18-Mar-20 22:10 33.949204 -118.419796 229 135ft 0kts

Navigation Log

Ident Type
Flight plan parsing failed, navigation log unavailable